createdAt,value
2018-11-02T00:02:09.870Z,14.60
2018-11-02T00:04:38.835Z,14.60
2018-11-02T00:07:07.836Z,14.70
2018-11-02T00:09:36.736Z,14.60
2018-11-02T00:12:06.009Z,14.50
2018-11-02T00:14:34.935Z,14.50
2018-11-02T00:17:03.907Z,14.30
2018-11-02T00:19:34.702Z,14.30
2018-11-02T00:22:04.833Z,14.20
2018-11-02T00:24:33.791Z,14.10
2018-11-02T00:27:02.928Z,14.10
2018-11-02T00:29:33.001Z,14.00
2018-11-02T00:32:02.052Z,13.90
2018-11-02T00:34:30.987Z,13.80
2018-11-02T00:36:59.954Z,13.90
2018-11-02T00:39:28.898Z,13.80
2018-11-02T00:41:57.787Z,13.70
2018-11-02T00:44:26.739Z,13.70
2018-11-02T00:46:55.788Z,13.70
2018-11-02T00:49:24.676Z,13.70
2018-11-02T00:51:53.895Z,13.50
2018-11-02T00:54:22.822Z,13.60
2018-11-02T00:56:51.724Z,13.50
2018-11-02T00:59:20.602Z,13.50
2018-11-02T01:01:49.539Z,13.40
2018-11-02T01:04:18.415Z,13.40
2018-11-02T01:06:47.306Z,13.30
2018-11-02T01:09:16.268Z,13.10
2018-11-02T01:11:45.168Z,13.20
2018-11-02T01:14:14.156Z,13.20
2018-11-02T01:16:43.248Z,13.30
2018-11-02T01:19:12.128Z,13.40
2018-11-02T01:21:41.038Z,13.40
2018-11-02T01:24:10.036Z,13.40
2018-11-02T01:26:38.992Z,13.40
2018-11-02T01:29:08.107Z,13.30
2018-11-02T01:31:37.052Z,13.20
2018-11-02T01:34:06.052Z,13.30
2018-11-02T01:36:34.997Z,13.30
2018-11-02T01:39:04.470Z,13.30
2018-11-02T01:41:33.422Z,13.30
2018-11-02T01:44:02.396Z,13.20
2018-11-02T01:46:31.423Z,13.20
2018-11-02T01:49:00.399Z,13.20
2018-11-02T01:51:29.339Z,13.20
2018-11-02T01:53:58.268Z,13.10
2018-11-02T01:56:27.171Z,12.90
2018-11-02T01:58:56.100Z,12.80
2018-11-02T02:01:25.055Z,12.90
2018-11-02T02:03:54.063Z,13.00
2018-11-02T02:06:22.969Z,13.10
2018-11-02T02:08:51.932Z,13.00
2018-11-02T02:11:20.871Z,12.90
2018-11-02T02:13:49.803Z,12.90
2018-11-02T02:16:19.075Z,12.90
2018-11-02T02:18:47.980Z,13.00
2018-11-02T02:21:16.884Z,13.00
2018-11-02T02:23:45.846Z,13.00
2018-11-02T02:26:14.792Z,12.90
2018-11-02T02:28:43.728Z,12.80
2018-11-02T02:31:12.692Z,12.80
2018-11-02T02:33:41.591Z,12.70
2018-11-02T02:36:10.919Z,12.70
2018-11-02T02:38:40.044Z,12.70
2018-11-02T02:41:08.974Z,12.60
2018-11-02T02:43:37.893Z,12.60
2018-11-02T02:46:06.951Z,12.50
2018-11-02T02:48:35.991Z,12.50
2018-11-02T02:51:04.973Z,12.50
2018-11-02T02:53:33.952Z,12.40
2018-11-02T02:56:02.833Z,12.40
2018-11-02T02:58:31.792Z,12.40
2018-11-02T03:01:01.344Z,12.40
2018-11-02T03:03:30.285Z,12.40
2018-11-02T03:05:59.213Z,12.30
2018-11-02T03:08:28.192Z,12.30
2018-11-02T03:10:57.177Z,12.20
2018-11-02T03:13:26.068Z,12.10
2018-11-02T03:16:09.704Z,12.00
2018-11-02T03:18:38.690Z,11.90
2018-11-02T03:21:07.586Z,11.90
2018-11-02T03:23:36.537Z,11.80
2018-11-02T03:26:05.716Z,11.70
2018-11-02T03:28:34.661Z,11.70
2018-11-02T03:31:03.594Z,11.60
2018-11-02T03:33:32.558Z,11.50
2018-11-02T03:36:01.513Z,11.40
2018-11-02T03:38:30.468Z,11.30
2018-11-02T03:40:59.426Z,11.20
2018-11-02T03:43:28.316Z,11.20
2018-11-02T03:45:57.296Z,11.10
2018-11-02T03:48:26.179Z,11.10
2018-11-02T03:50:55.114Z,11.10
2018-11-02T03:53:24.150Z,11.10
2018-11-02T03:55:54.054Z,11.00
2018-11-02T03:58:22.946Z,10.90
2018-11-02T04:00:51.892Z,10.90
2018-11-02T04:03:20.844Z,10.90
2018-11-02T04:05:49.736Z,10.90
2018-11-02T04:08:18.701Z,10.90
2018-11-02T04:10:47.689Z,10.80
2018-11-02T04:13:16.692Z,10.70
2018-11-02T04:15:45.644Z,10.50
2018-11-02T04:18:14.571Z,10.50
2018-11-02T04:20:43.528Z,10.40
2018-11-02T04:23:12.503Z,10.40
2018-11-02T04:25:41.439Z,10.40
2018-11-02T04:28:10.427Z,10.40
2018-11-02T04:30:39.431Z,10.40
2018-11-02T04:33:08.394Z,10.40
2018-11-02T04:35:37.302Z,10.40
2018-11-02T04:38:06.508Z,10.30
2018-11-02T04:40:35.784Z,10.20
2018-11-02T04:43:05.082Z,10.20
2018-11-02T04:45:39.980Z,10.10
2018-11-02T04:48:13.433Z,10.10
2018-11-02T04:50:42.536Z,10.00
2018-11-02T04:53:11.439Z,9.90
2018-11-02T04:55:40.356Z,10.00
2018-11-02T04:58:09.324Z,9.90
2018-11-02T05:00:38.271Z,10.00
2018-11-02T05:03:07.204Z,9.90
2018-11-02T05:05:36.179Z,9.90
2018-11-02T05:08:05.140Z,9.90
2018-11-02T05:10:34.095Z,9.70
2018-11-02T05:13:03.030Z,9.60
2018-11-02T05:15:31.934Z,9.60
2018-11-02T05:18:00.817Z,9.60
2018-11-02T05:20:29.761Z,9.50
2018-11-02T05:22:58.767Z,9.50
2018-11-02T05:25:27.651Z,9.50
2018-11-02T05:27:56.579Z,9.50
2018-11-02T05:30:25.529Z,9.50
2018-11-02T05:32:54.418Z,9.40
2018-11-02T05:35:23.363Z,9.40
2018-11-02T05:37:52.255Z,9.30
2018-11-02T05:40:21.150Z,9.30
2018-11-02T05:42:50.105Z,9.30
2018-11-02T05:45:19.474Z,9.30
2018-11-02T05:47:48.376Z,9.20
2018-11-02T05:50:17.359Z,9.20
2018-11-02T05:52:46.308Z,9.20
2018-11-02T05:55:15.297Z,9.10
2018-11-02T05:57:44.332Z,9.10
2018-11-02T06:00:13.471Z,9.10
2018-11-02T06:02:42.523Z,9.10
2018-11-02T06:05:11.477Z,9.20
2018-11-02T06:07:40.427Z,9.20
2018-11-02T06:10:09.462Z,9.30
2018-11-02T06:12:38.436Z,9.30
2018-11-02T06:15:07.523Z,9.30
2018-11-02T06:17:36.399Z,9.40
2018-11-02T06:20:06.436Z,9.40
2018-11-02T06:22:35.370Z,9.50
2018-11-02T06:25:04.325Z,9.40
2018-11-02T06:27:33.537Z,9.40
2018-11-02T06:30:02.467Z,9.40
2018-11-02T06:32:31.429Z,9.40
2018-11-02T06:35:00.360Z,9.50
2018-11-02T06:37:29.255Z,9.60
2018-11-02T06:39:58.165Z,9.70
2018-11-02T06:42:27.355Z,9.90
2018-11-02T06:44:56.370Z,10.10
2018-11-02T06:47:25.242Z,10.30
2018-11-02T06:49:54.368Z,10.50
2018-11-02T06:52:23.310Z,10.70
2018-11-02T06:54:52.268Z,10.90
2018-11-02T06:57:21.280Z,11.20
2018-11-02T06:59:50.366Z,11.40
2018-11-02T07:02:19.234Z,11.70
2018-11-02T07:04:48.205Z,12.60
2018-11-02T07:07:17.271Z,14.60
2018-11-02T07:09:46.162Z,17.30
2018-11-02T07:12:15.135Z,20.50
2018-11-02T07:14:44.101Z,23.70
2018-11-02T07:17:13.025Z,26.00
2018-11-02T07:19:41.979Z,27.70
2018-11-02T07:22:10.889Z,28.90
2018-11-02T07:24:39.892Z,29.80
2018-11-02T07:27:08.898Z,31.10
2018-11-02T07:29:37.858Z,31.80
2018-11-02T07:32:06.830Z,32.60
2018-11-02T07:34:35.963Z,32.30
2018-11-02T07:37:04.902Z,31.20
2018-11-02T07:39:34.752Z,30.00
2018-11-02T07:42:04.345Z,28.60
2018-11-02T07:44:33.319Z,27.20
2018-11-02T07:47:02.323Z,25.00
2018-11-02T07:49:31.401Z,23.40
2018-11-02T07:52:00.342Z,21.70
2018-11-02T07:54:29.309Z,20.60
2018-11-02T07:56:58.277Z,19.70
2018-11-02T07:59:27.180Z,18.90
2018-11-02T08:01:56.280Z,17.90
2018-11-02T08:04:25.079Z,17.30
2018-11-02T08:06:53.989Z,17.60
2018-11-02T08:09:22.931Z,19.60
2018-11-02T08:11:51.914Z,22.00
2018-11-02T08:14:20.827Z,25.80
2018-11-02T08:16:49.732Z,29.00
2018-11-02T08:19:18.697Z,30.80
2018-11-02T08:21:47.651Z,32.30
2018-11-02T08:24:16.620Z,33.00
2018-11-02T08:26:45.592Z,33.80
2018-11-02T08:29:14.597Z,33.80
2018-11-02T08:31:43.489Z,33.50
2018-11-02T08:34:12.455Z,33.10
2018-11-02T08:36:41.353Z,33.00
2018-11-02T08:39:11.799Z,32.30
2018-11-02T08:41:40.717Z,31.80
2018-11-02T08:44:10.081Z,30.70
2018-11-02T08:46:39.258Z,31.10
2018-11-02T08:49:08.111Z,30.90
2018-11-02T08:51:37.061Z,29.00
2018-11-02T08:54:06.210Z,26.80
2018-11-02T08:56:36.342Z,24.80
2018-11-02T08:59:05.474Z,23.00
2018-11-02T09:01:34.419Z,21.60
2018-11-02T09:04:03.970Z,20.70
2018-11-02T09:06:32.855Z,19.80
2018-11-02T09:09:01.750Z,19.40
2018-11-02T09:11:30.710Z,18.70
2018-11-02T09:13:59.616Z,17.80
2018-11-02T09:16:28.524Z,17.40
2018-11-02T09:18:57.461Z,17.10
2018-11-02T09:21:26.550Z,17.10
2018-11-02T09:23:55.395Z,17.20
2018-11-02T09:26:24.391Z,17.50
2018-11-02T09:28:53.312Z,17.70
2018-11-02T09:31:22.199Z,17.80
2018-11-02T09:33:51.145Z,18.00
2018-11-02T09:36:20.030Z,18.20
2018-11-02T09:38:48.985Z,18.20
2018-11-02T09:41:17.938Z,18.30
2018-11-02T09:43:47.722Z,18.40
2018-11-02T09:46:16.626Z,18.40
2018-11-02T09:48:45.550Z,18.50
2018-11-02T09:51:14.519Z,18.40
2018-11-02T09:53:43.451Z,18.30
2018-11-02T09:56:12.425Z,18.50
2018-11-02T09:58:41.373Z,18.50
2018-11-02T10:01:10.280Z,18.40
2018-11-02T10:03:39.235Z,18.30
2018-11-02T10:06:08.197Z,18.40
2018-11-02T10:08:37.152Z,18.30
2018-11-02T10:11:06.179Z,18.40
2018-11-02T10:13:35.124Z,18.50
2018-11-02T10:16:04.019Z,18.70
2018-11-02T10:18:32.984Z,18.70
2018-11-02T10:21:01.927Z,18.70
2018-11-02T10:23:30.852Z,18.60
2018-11-02T10:25:59.986Z,18.40
2018-11-02T10:28:29.025Z,18.40
2018-11-02T10:30:58.047Z,18.30
2018-11-02T10:33:27.097Z,18.30
2018-11-02T10:35:56.508Z,18.10
2018-11-02T10:38:25.417Z,18.10
2018-11-02T10:40:56.488Z,17.90
2018-11-02T10:43:26.645Z,17.70
2018-11-02T10:45:59.185Z,17.60
2018-11-02T10:48:29.204Z,17.60
2018-11-02T10:50:58.154Z,17.50
2018-11-02T10:53:27.239Z,17.40
2018-11-02T10:55:56.166Z,17.50
2018-11-02T10:58:25.130Z,17.50
2018-11-02T11:00:59.505Z,17.40
2018-11-02T11:03:28.329Z,17.30
2018-11-02T11:05:57.262Z,17.10
2018-11-02T11:08:27.122Z,17.10
2018-11-02T11:10:56.048Z,17.10
2018-11-02T11:13:25.328Z,17.20
2018-11-02T11:15:53.957Z,17.30
2018-11-02T11:18:22.891Z,17.30
2018-11-02T11:20:51.803Z,17.40
2018-11-02T11:23:20.758Z,17.50
2018-11-02T11:25:49.684Z,17.40
2018-11-02T11:28:18.618Z,17.30
2018-11-02T11:30:47.575Z,17.40
2018-11-02T11:33:16.502Z,17.30
2018-11-02T11:35:45.500Z,17.20
2018-11-02T11:38:14.474Z,17.20
2018-11-02T11:40:43.441Z,17.40
2018-11-02T11:43:12.992Z,17.50
2018-11-02T11:45:41.992Z,17.50
2018-11-02T11:48:10.936Z,17.50
2018-11-02T11:50:39.830Z,17.70
2018-11-02T11:53:08.888Z,17.80
2018-11-02T11:55:37.768Z,17.80
2018-11-02T11:58:06.860Z,17.90
2018-11-02T12:00:35.876Z,17.90
2018-11-02T12:03:04.879Z,17.80
2018-11-02T12:05:33.855Z,17.80
2018-11-02T12:08:02.830Z,17.60
2018-11-02T12:10:31.891Z,17.60
2018-11-02T12:13:00.821Z,17.40
2018-11-02T12:15:29.814Z,17.40
2018-11-02T12:17:58.960Z,17.40
2018-11-02T12:20:29.794Z,17.50
2018-11-02T12:23:00.958Z,17.40
2018-11-02T12:25:30.124Z,17.20
2018-11-02T12:27:59.170Z,17.20
2018-11-02T12:30:28.138Z,17.30
2018-11-02T12:32:57.120Z,17.40
2018-11-02T12:35:26.091Z,17.50
2018-11-02T12:37:55.041Z,17.50
2018-11-02T12:40:24.661Z,17.40
2018-11-02T12:42:54.659Z,17.40
2018-11-02T12:45:23.844Z,17.50
2018-11-02T12:47:52.870Z,17.60
2018-11-02T12:50:25.427Z,17.70
2018-11-02T12:52:55.504Z,17.70
2018-11-02T12:55:24.612Z,17.60
2018-11-02T12:57:53.571Z,17.40
2018-11-02T13:00:23.768Z,17.40
2018-11-02T13:02:53.315Z,17.50
2018-11-02T13:05:22.275Z,17.50
2018-11-02T13:07:51.527Z,17.70
2018-11-02T13:10:21.482Z,17.90
2018-11-02T13:12:50.439Z,18.00
2018-11-02T13:15:21.474Z,18.10
2018-11-02T13:17:50.824Z,18.20
2018-11-02T13:20:19.839Z,18.20
2018-11-02T13:22:49.712Z,18.50
2018-11-02T13:25:20.055Z,18.50
2018-11-02T13:27:49.902Z,18.60
2018-11-02T13:30:19.036Z,18.60
2018-11-02T13:32:47.826Z,18.50
2018-11-02T13:35:17.990Z,18.40
2018-11-02T13:37:47.545Z,17.90
2018-11-02T13:40:17.483Z,17.70
2018-11-02T13:42:46.520Z,17.60
2018-11-02T13:45:16.606Z,17.50
2018-11-02T13:47:45.811Z,17.40
2018-11-02T13:50:14.881Z,17.50
2018-11-02T13:52:44.472Z,17.50
2018-11-02T13:55:13.814Z,17.60
2018-11-02T13:57:43.050Z,17.60
2018-11-02T14:00:13.471Z,17.40
2018-11-02T14:02:42.433Z,17.40
2018-11-02T14:05:12.787Z,17.40
2018-11-02T14:07:42.018Z,17.40
2018-11-02T14:10:11.730Z,17.30
2018-11-02T14:12:41.198Z,17.10
2018-11-02T14:15:12.577Z,17.00
2018-11-02T14:17:42.040Z,16.90
2018-11-02T14:20:12.167Z,16.90
2018-11-02T14:22:41.239Z,16.80
2018-11-02T14:25:12.903Z,16.80
2018-11-02T14:27:41.939Z,16.70
2018-11-02T14:30:12.944Z,16.70
2018-11-02T14:32:41.941Z,16.60
2018-11-02T14:35:10.857Z,16.50
2018-11-02T14:37:39.817Z,16.40
2018-11-02T14:40:09.901Z,16.40
2018-11-02T14:42:39.738Z,16.30
2018-11-02T14:45:10.754Z,16.30
2018-11-02T14:47:39.675Z,16.20
2018-11-02T14:50:09.195Z,16.20
2018-11-02T14:52:38.428Z,16.10
2018-11-02T14:55:07.478Z,16.10
2018-11-02T14:57:36.420Z,16.10
2018-11-02T15:00:06.393Z,16.00
2018-11-02T15:02:35.299Z,16.10
2018-11-02T15:05:04.383Z,16.10
2018-11-02T15:07:33.351Z,16.00
2018-11-02T15:10:02.243Z,16.00
2018-11-02T15:12:31.155Z,16.00
2018-11-02T15:15:00.126Z,15.90
2018-11-02T15:17:29.096Z,15.70
2018-11-02T15:19:58.091Z,15.70
2018-11-02T15:22:27.123Z,15.60
2018-11-02T15:24:56.082Z,15.60
2018-11-02T15:27:25.259Z,15.50
2018-11-02T15:29:54.241Z,15.40
2018-11-02T15:32:23.167Z,15.30
2018-11-02T15:34:52.133Z,15.20
2018-11-02T15:37:21.154Z,15.10
2018-11-02T15:39:50.120Z,15.00
2018-11-02T15:42:19.197Z,14.90
2018-11-02T15:44:48.253Z,14.80
2018-11-02T15:47:17.242Z,14.80
2018-11-02T15:49:46.184Z,14.70
2018-11-02T15:52:15.259Z,14.60
2018-11-02T15:54:44.256Z,14.50
2018-11-02T15:57:13.964Z,14.50
2018-11-02T15:59:43.039Z,14.50
2018-11-02T16:02:11.993Z,14.50
2018-11-02T16:04:41.215Z,14.60
2018-11-02T16:07:10.267Z,14.60
2018-11-02T16:09:39.180Z,14.60
2018-11-02T16:12:08.330Z,14.70
2018-11-02T16:14:37.297Z,14.70
2018-11-02T16:17:06.494Z,14.60
2018-11-02T16:19:35.454Z,14.60
2018-11-02T16:22:05.412Z,14.60
2018-11-02T16:24:34.702Z,14.50
2018-11-02T16:27:03.726Z,14.50
2018-11-02T16:29:32.813Z,14.50
2018-11-02T16:32:01.747Z,14.50
2018-11-02T16:34:30.648Z,14.50
2018-11-02T16:36:59.613Z,14.40
2018-11-02T16:39:28.645Z,14.30
2018-11-02T16:41:58.208Z,14.20
2018-11-02T16:44:27.322Z,14.20
2018-11-02T16:46:56.238Z,14.20
2018-11-02T16:49:25.715Z,14.10
2018-11-02T16:51:54.821Z,14.10
2018-11-02T16:54:25.180Z,14.20
2018-11-02T16:56:54.655Z,14.20
2018-11-02T16:59:23.797Z,14.20
2018-11-02T17:01:53.054Z,14.20
2018-11-02T17:04:22.293Z,14.10
2018-11-02T17:06:51.642Z,14.10
2018-11-02T17:09:21.448Z,14.10
2018-11-02T17:11:51.855Z,14.00
2018-11-02T17:14:20.847Z,14.00
2018-11-02T17:16:50.448Z,14.00
2018-11-02T17:19:20.858Z,13.90
2018-11-02T17:21:50.295Z,14.00
2018-11-02T17:24:21.346Z,14.10
2018-11-02T17:26:51.014Z,14.00
2018-11-02T17:29:23.117Z,14.10
2018-11-02T17:31:52.660Z,14.10
2018-11-02T17:34:22.211Z,14.10
2018-11-02T17:36:51.760Z,14.00
2018-11-02T17:39:22.056Z,14.00
2018-11-02T17:41:53.384Z,14.00
2018-11-02T17:44:22.752Z,14.10
2018-11-02T17:46:51.884Z,14.10
2018-11-02T17:49:20.798Z,14.10
2018-11-02T17:51:50.348Z,14.10
2018-11-02T17:54:20.764Z,14.30
2018-11-02T17:56:50.153Z,14.40
2018-11-02T17:59:19.273Z,14.40
2018-11-02T18:01:48.467Z,14.30
2018-11-02T18:04:17.550Z,14.40
2018-11-02T18:06:46.643Z,14.30
2018-11-02T18:09:15.688Z,14.30
2018-11-02T18:11:44.932Z,14.30
2018-11-02T18:14:14.275Z,14.20
2018-11-02T18:16:43.348Z,14.10
2018-11-02T18:19:12.498Z,14.00
2018-11-02T18:21:41.543Z,13.90
2018-11-02T18:24:11.805Z,13.70
2018-11-02T18:26:40.918Z,13.60
2018-11-02T18:29:11.997Z,13.50
2018-11-02T18:31:42.755Z,13.30
2018-11-02T18:34:12.685Z,13.30
2018-11-02T18:36:42.941Z,13.30
2018-11-02T18:39:17.327Z,13.30
2018-11-02T18:41:47.105Z,13.30
2018-11-02T18:44:20.235Z,13.30
2018-11-02T18:46:51.893Z,13.30
2018-11-02T18:49:21.456Z,13.30
2018-11-02T18:51:50.475Z,13.20
2018-11-02T18:54:21.478Z,13.10
2018-11-02T18:56:51.953Z,13.10
2018-11-02T18:59:22.280Z,12.90
2018-11-02T19:01:53.866Z,12.90
2018-11-02T19:04:27.835Z,12.90
2018-11-02T19:06:58.421Z,12.90
2018-11-02T19:09:29.140Z,12.90
2018-11-02T19:11:59.947Z,13.00
2018-11-02T19:14:30.569Z,13.10
2018-11-02T19:20:11.387Z,13.00
2018-11-02T19:22:43.783Z,13.00
2018-11-02T19:25:18.504Z,13.00
2018-11-02T19:27:48.998Z,12.90
2018-11-02T19:30:27.265Z,12.90
2018-11-02T19:33:01.277Z,12.80
2018-11-02T19:35:33.326Z,12.80
2018-11-02T19:38:05.565Z,12.80
2018-11-02T19:40:43.360Z,12.90
2018-11-02T19:43:19.032Z,12.80
2018-11-02T19:45:54.153Z,12.80
2018-11-02T19:48:23.971Z,12.70
2018-11-02T19:50:53.823Z,12.70
2018-11-02T19:53:28.378Z,12.60
2018-11-02T19:55:57.555Z,12.50
2018-11-02T19:58:26.550Z,12.50
2018-11-02T20:00:55.502Z,12.60
2018-11-02T20:03:24.875Z,12.60
2018-11-02T20:05:53.819Z,12.50
2018-11-02T20:08:22.785Z,12.60
2018-11-02T20:10:51.740Z,12.50
2018-11-02T20:13:20.681Z,12.40
2018-11-02T20:15:49.883Z,12.40
2018-11-02T20:18:19.800Z,12.40
2018-11-02T20:20:48.949Z,12.30
2018-11-02T20:23:17.995Z,12.20
2018-11-02T20:25:47.543Z,12.10
2018-11-02T20:28:16.967Z,12.10
2018-11-02T20:30:46.651Z,12.10
2018-11-02T20:33:15.720Z,12.20
2018-11-02T20:35:45.194Z,12.30
2018-11-02T20:38:14.347Z,12.40
2018-11-02T20:40:43.419Z,12.40
2018-11-02T20:43:12.433Z,12.50
2018-11-02T20:45:56.207Z,12.50
2018-11-02T20:48:25.167Z,12.50
2018-11-02T20:50:54.131Z,12.40
2018-11-02T20:53:23.095Z,12.50
2018-11-02T20:55:52.441Z,12.50
2018-11-02T20:58:21.399Z,12.50
2018-11-02T21:00:50.460Z,12.40
2018-11-02T21:03:19.514Z,12.30
2018-11-02T21:05:48.925Z,12.20
2018-11-02T21:08:18.179Z,12.10
2018-11-02T21:10:47.163Z,12.10
2018-11-02T21:13:16.220Z,12.20
2018-11-02T21:15:45.435Z,12.20
2018-11-02T21:18:14.454Z,12.30
2018-11-02T21:20:43.541Z,12.30
2018-11-02T21:23:12.978Z,12.40
2018-11-02T21:25:42.883Z,12.40
2018-11-02T21:28:11.889Z,12.50
2018-11-02T21:30:41.827Z,12.50
2018-11-02T21:33:10.920Z,12.50
2018-11-02T21:35:39.888Z,12.60
2018-11-02T21:38:08.892Z,12.50
2018-11-02T21:40:37.860Z,12.50
2018-11-02T21:43:06.853Z,12.50
2018-11-02T21:45:36.209Z,12.60
2018-11-02T21:48:05.434Z,12.60
2018-11-02T21:50:34.348Z,12.70
2018-11-02T21:53:03.321Z,12.80
2018-11-02T21:55:32.322Z,12.80
2018-11-02T21:58:01.344Z,12.80
2018-11-02T22:00:30.379Z,12.80
2018-11-02T22:02:59.294Z,12.90
2018-11-02T22:05:28.192Z,12.90
2018-11-02T22:07:57.668Z,12.90
2018-11-02T22:10:26.615Z,12.90
2018-11-02T22:12:55.516Z,12.90
2018-11-02T22:15:24.489Z,12.90
2018-11-02T22:17:53.568Z,12.90
2018-11-02T22:20:22.488Z,13.00
2018-11-02T22:22:51.458Z,12.90
2018-11-02T22:25:20.358Z,12.90
2018-11-02T22:27:49.531Z,12.80
2018-11-02T22:30:18.780Z,12.80
2018-11-02T22:32:48.396Z,12.70
2018-11-02T22:35:17.350Z,12.70
2018-11-02T22:37:46.786Z,12.70
2018-11-02T22:40:15.823Z,12.60
2018-11-02T22:42:45.352Z,12.50
2018-11-02T22:45:15.721Z,12.60
2018-11-02T22:47:49.924Z,12.50
2018-11-02T22:50:18.926Z,12.50
2018-11-02T22:52:47.846Z,12.50
2018-11-02T22:55:16.929Z,12.40
2018-11-02T22:57:46.184Z,12.40
2018-11-02T23:00:16.976Z,12.50
2018-11-02T23:02:46.846Z,12.40
2018-11-02T23:05:15.828Z,12.20
2018-11-02T23:07:45.278Z,12.30
2018-11-02T23:10:14.981Z,12.30
2018-11-02T23:12:44.267Z,12.20
2018-11-02T23:15:13.729Z,12.10
2018-11-02T23:17:42.902Z,12.10
2018-11-02T23:20:13.733Z,12.20
2018-11-02T23:22:43.176Z,12.00
2018-11-02T23:25:12.719Z,11.90
2018-11-02T23:27:43.315Z,11.90
2018-11-02T23:30:12.715Z,11.80
2018-11-02T23:32:42.542Z,11.70
2018-11-02T23:35:11.623Z,11.60
2018-11-02T23:37:40.606Z,11.60
2018-11-02T23:40:10.549Z,11.60
2018-11-02T23:42:39.930Z,11.70
2018-11-02T23:45:09.955Z,11.70
2018-11-02T23:47:39.180Z,11.70
2018-11-02T23:50:09.785Z,11.60
2018-11-02T23:52:38.784Z,11.50
2018-11-02T23:55:07.972Z,11.60
2018-11-02T23:57:37.015Z,11.60
